Aérodrome :
LOGIN :

S'inscrire | Disclaimer

   EN    FR    IT 

 










Légende :    VFR   VFR Marginal   IFR   IFR Intensif   IFR Très Intensif
Visi : 
Plafond : 
>= 8 km
>= 3000ft
5 à 8 km
1000 à 3000 ft
1500m à 5 km
500 à 1000 ft
800 à 1500m
200 à 500 ft
< 800m
< 200 ft
Symboles :   Orages  Brouillard  Fortes neiges  Fortes précipitations  Vent > 20 kt
SIGMETs :   Divers  Orages  Givrage  Turbulence  Onde Orograph.  Cendres Volcan.






- Altitude de l'aérodrome : 364 ft
- Code IATA : FRA


EDDF - Frankfurt Int.

DERNIER METAR :
  • 271150Z VRB03KT 9999 FEW011 SCT045 06/02 Q1021 TEMPO BKN012

METARs EXPIRÉS :
  • 271120Z 11003KT 070V170 9999 SCT012 SCT045 05/02 Q1021 TEMPO BKN012
  • 271050Z 12003KT 060V210 9999 BKN009 SCT045 05/02 Q1021 TEMPO SCT009
  • 271020Z VRB03KT 9999 BKN010 SCT049 04/02 Q1021 TEMPO BKN008
  • 270950Z VRB02KT 9999 FEW003 SCT009 04/02 Q1022 TEMPO BKN008
  • 270920Z VRB02KT 8000 FEW003 BKN008 03/02 Q1022 BECMG SCT008

TAF TAF EDDF
Valide du 27 à 12h jusqu'au 28 à 18h UTC


271100Z 2712/2818 06003KT 9999 SCT011
TEMPO 2712/2717 BKN009
TEMPO 2717/2809 4000 BR BKN004
BECMG 2805/2807 05008KT



MET'MAP, la Météo Aéronautique d'un coup d'oeil ! - Copyright ORBIFLY Décembre 2007 - Disclaimer

ORBIFLY MET'MAP TEAM :

Programmation & Développement : Alexandra Zaïnal
Sur une idée originale de : Baudouin d'Aumeries
Assistance à la programmation : Marc-Olivier Méhu
Soutien technique & logistique : Manuel Goepfert

Contact : metmap@orbifly.com




SOURCES & CREDITS :

   NOAA